createdAt,value
2023-11-01T00:02:05.656Z,11.12
2023-11-01T00:04:32.876Z,11.10
2023-11-01T00:06:59.598Z,11.06
2023-11-01T00:09:26.644Z,11.00
2023-11-01T00:11:53.422Z,11.00
2023-11-01T00:14:20.212Z,10.92
2023-11-01T00:16:46.833Z,10.90
2023-11-01T00:19:13.613Z,10.90
2023-11-01T00:21:40.819Z,10.80
2023-11-01T00:24:08.403Z,10.80
2023-11-01T00:26:35.211Z,10.80
2023-11-01T00:29:02.333Z,10.78
2023-11-01T00:31:28.981Z,10.70
2023-11-01T00:33:55.736Z,10.70
2023-11-01T00:36:22.445Z,10.70
2023-11-01T00:38:49.506Z,10.70
2023-11-01T00:41:16.162Z,10.60
2023-11-01T00:43:42.795Z,10.60
2023-11-01T00:46:09.521Z,10.60
2023-11-01T00:48:36.189Z,10.60
2023-11-01T00:51:03.803Z,10.52
2023-11-01T00:53:30.692Z,10.50
2023-11-01T00:55:57.717Z,10.50
2023-11-01T00:58:24.428Z,10.50
2023-11-01T01:00:51.260Z,10.50
2023-11-01T01:03:18.205Z,10.50
2023-11-01T01:05:44.992Z,10.50
2023-11-01T01:08:11.834Z,10.50
2023-11-01T01:10:38.636Z,10.42
2023-11-01T01:13:05.499Z,10.40
2023-11-01T01:15:32.189Z,10.40
2023-11-01T01:17:59.460Z,10.42
2023-11-01T01:20:26.403Z,10.50
2023-11-01T01:22:53.095Z,10.50
2023-11-01T01:25:19.790Z,10.50
2023-11-01T01:27:46.473Z,10.60
2023-11-01T01:30:14.034Z,10.60
2023-11-01T01:32:40.803Z,10.60
2023-11-01T01:35:08.209Z,10.60
2023-11-01T01:37:34.903Z,10.66
2023-11-01T01:40:01.741Z,10.70
2023-11-01T01:42:28.331Z,10.70
2023-11-01T01:44:55.076Z,10.70
2023-11-01T01:47:22.034Z,10.70
2023-11-01T01:49:49.264Z,10.70
2023-11-01T01:52:16.596Z,10.76
2023-11-01T01:54:44.072Z,10.80
2023-11-01T01:57:11.795Z,10.80
2023-11-01T01:59:39.643Z,10.80
2023-11-01T02:02:09.148Z,10.80
2023-11-01T02:04:37.406Z,10.90
2023-11-01T02:07:04.953Z,10.90
2023-11-01T02:09:31.610Z,10.90
2023-11-01T02:11:58.301Z,10.90
2023-11-01T02:14:25.034Z,11.00
2023-11-01T02:16:51.929Z,11.00
2023-11-01T02:19:18.797Z,11.00
2023-11-01T02:21:45.641Z,11.00
2023-11-01T02:24:12.408Z,11.00
2023-11-01T02:26:39.188Z,11.06
2023-11-01T02:29:06.419Z,11.08
2023-11-01T02:31:33.459Z,11.04
2023-11-01T02:34:00.220Z,11.00
2023-11-01T02:36:26.833Z,11.00
2023-11-01T02:38:53.599Z,11.00
2023-11-01T02:41:20.288Z,11.00
2023-11-01T02:43:47.102Z,10.90
2023-11-01T02:46:13.743Z,10.90
2023-11-01T02:48:40.340Z,10.90
2023-11-01T02:51:07.232Z,10.86
2023-11-01T02:53:33.922Z,10.80
2023-11-01T02:56:01.161Z,10.80
2023-11-01T02:58:29.685Z,10.80
2023-11-01T03:00:56.284Z,10.72
2023-11-01T03:03:23.092Z,10.70
2023-11-01T03:05:50.755Z,10.70
2023-11-01T03:08:17.417Z,10.60
2023-11-01T03:10:44.177Z,10.60
2023-11-01T03:13:10.829Z,10.50
2023-11-01T03:15:38.420Z,10.50
2023-11-01T03:18:06.143Z,10.40
2023-11-01T03:20:34.477Z,10.40
2023-11-01T03:23:02.408Z,10.30
2023-11-01T03:25:29.315Z,10.30
2023-11-01T03:27:56.030Z,10.26
2023-11-01T03:30:25.527Z,10.20
2023-11-01T03:32:52.337Z,10.20
2023-11-01T03:35:19.129Z,10.10
2023-11-01T03:37:45.758Z,10.10
2023-11-01T03:40:12.467Z,10.00
2023-11-01T03:42:39.196Z,10.00
2023-11-01T03:45:07.082Z,9.90
2023-11-01T03:47:33.773Z,9.90
2023-11-01T03:50:01.567Z,9.90
2023-11-01T03:52:28.556Z,9.80
2023-11-01T03:54:55.211Z,9.80
2023-11-01T03:57:21.986Z,9.80
2023-11-01T03:59:48.664Z,9.80
2023-11-01T04:02:15.465Z,9.72
2023-11-01T04:04:42.560Z,9.70
2023-11-01T04:07:09.247Z,9.70
2023-11-01T04:09:36.047Z,9.70
2023-11-01T04:12:02.800Z,9.68
2023-11-01T04:14:29.409Z,9.60
2023-11-01T04:16:57.213Z,9.60
2023-11-01T04:19:24.372Z,9.58
2023-11-01T04:21:51.193Z,9.50
2023-11-01T04:24:17.864Z,9.50
2023-11-01T04:26:46.531Z,9.50
2023-11-01T04:29:13.541Z,9.44
2023-11-01T04:31:40.330Z,9.40
2023-11-01T04:34:07.083Z,9.40
2023-11-01T04:36:36.736Z,9.40
2023-11-01T04:39:04.737Z,9.34
2023-11-01T04:41:31.731Z,9.30
2023-11-01T04:43:58.476Z,9.30
2023-11-01T04:46:25.253Z,9.26
2023-11-01T04:48:52.133Z,9.20
2023-11-01T04:51:19.026Z,9.20
2023-11-01T04:53:47.485Z,9.16
2023-11-01T04:56:14.276Z,9.10
2023-11-01T04:58:41.696Z,9.06
2023-11-01T05:01:09.298Z,9.00
2023-11-01T05:03:40.275Z,9.00
2023-11-01T05:06:07.729Z,8.90
2023-11-01T05:08:36.341Z,8.90
2023-11-01T05:11:03.647Z,8.90
2023-11-01T05:13:30.458Z,8.90
2023-11-01T05:15:57.267Z,8.90
2023-11-01T05:18:25.807Z,8.90
2023-11-01T05:20:52.913Z,8.80
2023-11-01T05:23:20.322Z,8.80
2023-11-01T05:25:50.074Z,8.70
2023-11-01T05:28:16.928Z,8.70
2023-11-01T05:30:43.637Z,8.60
2023-11-01T05:33:10.426Z,8.60
2023-11-01T05:35:38.248Z,8.60
2023-11-01T05:38:08.238Z,8.50
2023-11-01T05:40:34.902Z,8.50
2023-11-01T05:43:01.508Z,8.50
2023-11-01T05:45:28.290Z,8.50
2023-11-01T05:47:55.210Z,8.40
2023-11-01T05:50:25.727Z,8.40
2023-11-01T05:52:54.352Z,8.40
2023-11-01T05:55:26.456Z,8.40
2023-11-01T05:58:01.268Z,8.40
2023-11-01T06:00:28.273Z,8.40
2023-11-01T06:02:55.207Z,8.30
2023-11-01T06:05:24.049Z,8.30
2023-11-01T06:07:51.456Z,8.30
2023-11-01T06:10:19.216Z,8.30
2023-11-01T06:12:46.135Z,8.30
2023-11-01T06:15:13.244Z,8.30
2023-11-01T06:17:40.214Z,8.30
2023-11-01T06:20:08.263Z,8.30
2023-11-01T06:22:35.209Z,8.30
2023-11-01T06:25:02.672Z,8.30
2023-11-01T06:27:29.756Z,8.30
2023-11-01T06:29:57.169Z,8.24
2023-11-01T06:32:23.833Z,8.30
2023-11-01T06:34:50.553Z,8.30
2023-11-01T06:37:22.402Z,8.30
2023-11-01T06:39:49.177Z,8.32
2023-11-01T06:42:15.840Z,8.40
2023-11-01T06:44:42.443Z,8.40
2023-11-01T06:47:09.285Z,8.40
2023-11-01T06:49:35.944Z,8.40
2023-11-01T06:52:02.662Z,8.40
2023-11-01T06:54:29.419Z,8.40
2023-11-01T06:56:57.544Z,8.40
2023-11-01T06:59:24.761Z,8.40
2023-11-01T07:01:52.663Z,8.40
2023-11-01T07:04:19.432Z,8.48
2023-11-01T07:06:46.110Z,8.50
2023-11-01T07:09:12.791Z,8.54
2023-11-01T07:11:39.750Z,8.60
2023-11-01T07:14:06.423Z,8.60
2023-11-01T07:16:35.531Z,8.68
2023-11-01T07:19:02.118Z,8.70
2023-11-01T07:21:28.792Z,8.80
2023-11-01T07:23:55.447Z,8.80
2023-11-01T07:26:22.144Z,8.90
2023-11-01T07:28:48.864Z,8.90
2023-11-01T07:31:16.440Z,8.94
2023-11-01T07:33:44.190Z,9.00
2023-11-01T07:36:11.944Z,9.06
2023-11-01T07:38:41.514Z,9.10
2023-11-01T07:41:09.891Z,9.20
2023-11-01T07:43:36.810Z,9.20
2023-11-01T07:46:04.011Z,9.30
2023-11-01T07:48:30.763Z,9.30
2023-11-01T07:50:57.614Z,9.40
2023-11-01T07:53:24.358Z,9.40
2023-11-01T07:55:54.509Z,9.50
2023-11-01T07:58:21.365Z,9.58
2023-11-01T08:00:48.123Z,9.60
2023-11-01T08:03:14.886Z,9.70
2023-11-01T08:05:41.888Z,9.80
2023-11-01T08:08:09.765Z,9.80
2023-11-01T08:10:36.544Z,9.90
2023-11-01T08:13:03.233Z,10.00
2023-11-01T08:15:34.222Z,10.06
2023-11-01T08:18:04.637Z,10.10
2023-11-01T08:20:31.479Z,10.20
2023-11-01T08:22:58.760Z,10.20
2023-11-01T08:25:25.689Z,10.30
2023-11-01T08:27:52.602Z,10.40
2023-11-01T08:30:19.587Z,10.40
2023-11-01T08:32:46.714Z,10.50
2023-11-01T08:35:13.869Z,10.60
2023-11-01T08:37:41.431Z,10.70
2023-11-01T08:40:09.211Z,10.80
2023-11-01T08:42:36.353Z,10.84
2023-11-01T08:45:03.496Z,10.92
2023-11-01T08:47:46.262Z,11.00
2023-11-01T08:50:14.763Z,11.10
2023-11-01T08:52:46.301Z,11.20
2023-11-01T08:55:17.433Z,11.30
2023-11-01T08:57:46.404Z,11.40
2023-11-01T09:00:17.350Z,11.50
2023-11-01T09:02:44.171Z,11.60
2023-11-01T09:05:11.587Z,11.80
2023-11-01T09:07:39.941Z,12.40
2023-11-01T09:10:10.408Z,13.44
2023-11-01T09:12:38.127Z,14.50
2023-11-01T09:15:06.226Z,15.54
2023-11-01T09:17:32.976Z,16.60
2023-11-01T09:19:59.546Z,17.64
2023-11-01T09:22:26.599Z,18.58
2023-11-01T09:24:53.675Z,19.02
2023-11-01T09:27:20.328Z,19.94
2023-11-01T09:29:46.991Z,20.96
2023-11-01T09:32:13.929Z,21.86
2023-11-01T09:34:42.090Z,22.54
2023-11-01T09:37:08.931Z,23.12
2023-11-01T09:39:35.573Z,23.64
2023-11-01T09:42:10.504Z,24.12
2023-11-01T09:44:37.483Z,24.40
2023-11-01T09:47:05.492Z,24.00
2023-11-01T09:49:33.224Z,24.40
2023-11-01T09:52:04.373Z,24.96
2023-11-01T09:54:31.031Z,25.40
2023-11-01T09:56:58.265Z,25.90
2023-11-01T09:59:25.577Z,26.34
2023-11-01T10:01:53.757Z,26.70
2023-11-01T10:04:20.700Z,27.00
2023-11-01T10:06:47.545Z,27.36
2023-11-01T10:09:14.759Z,27.60
2023-11-01T10:11:44.618Z,27.80
2023-11-01T10:14:11.947Z,28.00
2023-11-01T10:16:40.197Z,28.20
2023-11-01T10:19:08.507Z,28.50
2023-11-01T10:21:35.147Z,28.60
2023-11-01T10:24:04.164Z,28.30
2023-11-01T10:26:31.782Z,28.10
2023-11-01T10:29:00.772Z,27.80
2023-11-01T10:31:27.410Z,27.28
2023-11-01T10:33:54.399Z,26.58
2023-11-01T10:36:22.024Z,25.76
2023-11-01T10:38:54.527Z,25.04
2023-11-01T10:41:21.939Z,24.24
2023-11-01T10:43:49.172Z,23.26
2023-11-01T10:46:18.172Z,22.70
2023-11-01T10:48:48.129Z,22.20
2023-11-01T10:51:15.562Z,21.68
2023-11-01T10:53:45.488Z,21.28
2023-11-01T10:56:12.909Z,20.70
2023-11-01T10:58:45.243Z,20.18
2023-11-01T11:01:27.453Z,19.80
2023-11-01T11:04:25.026Z,19.60
2023-11-01T11:07:24.904Z,19.30
2023-11-01T11:10:44.519Z,19.10
2023-11-01T11:13:12.329Z,18.86
2023-11-01T11:15:58.114Z,18.74
2023-11-01T11:18:29.218Z,18.60
2023-11-01T11:21:00.018Z,18.58
2023-11-01T11:23:35.432Z,18.40
2023-11-01T11:26:04.435Z,18.30
2023-11-01T11:28:39.201Z,18.22
2023-11-01T11:31:09.046Z,18.20
2023-11-01T11:33:49.049Z,18.08
2023-11-01T11:36:25.344Z,17.94
2023-11-01T11:39:05.157Z,17.80
2023-11-01T11:41:38.008Z,17.74
2023-11-01T11:44:08.630Z,17.62
2023-11-01T11:46:51.194Z,17.50
2023-11-01T11:49:25.391Z,17.46
2023-11-01T11:52:01.854Z,17.40
2023-11-01T11:54:31.825Z,17.42
2023-11-01T11:57:12.667Z,17.40
2023-11-01T11:59:41.066Z,17.40
2023-11-01T12:02:13.868Z,17.40
2023-11-01T12:04:43.118Z,17.40
2023-11-01T12:07:19.568Z,17.40
2023-11-01T12:09:52.386Z,17.30
2023-11-01T12:12:20.373Z,17.30
2023-11-01T12:15:03.116Z,17.30
2023-11-01T12:17:31.642Z,17.30
2023-11-01T12:19:59.536Z,17.30
2023-11-01T12:22:26.954Z,17.30
2023-11-01T12:24:57.155Z,17.10
2023-11-01T12:27:33.302Z,17.00
2023-11-01T12:30:02.451Z,17.10
2023-11-01T12:32:40.191Z,17.10
2023-11-01T12:35:08.868Z,17.00
2023-11-01T12:37:38.686Z,17.00
2023-11-01T12:40:14.312Z,17.00
2023-11-01T12:42:48.214Z,17.00
2023-11-01T12:45:16.533Z,17.00
2023-11-01T12:47:58.606Z,17.00
2023-11-01T12:50:29.783Z,17.00
2023-11-01T12:52:57.059Z,17.00
2023-11-01T12:55:25.496Z,17.10
2023-11-01T12:58:01.286Z,17.10
2023-11-01T13:00:32.260Z,17.20
2023-11-01T13:03:00.526Z,17.20
2023-11-01T13:05:27.762Z,17.30
2023-11-01T13:07:58.540Z,17.34
2023-11-01T13:10:26.093Z,17.30
2023-11-01T13:12:53.285Z,17.30
2023-11-01T13:15:20.446Z,17.30
2023-11-01T13:17:49.994Z,17.30
2023-11-01T13:20:17.124Z,17.30
2023-11-01T13:22:43.930Z,17.30
2023-11-01T13:25:10.816Z,17.24
2023-11-01T13:27:37.533Z,17.20
2023-11-01T13:30:04.880Z,17.10
2023-11-01T13:32:31.923Z,17.00
2023-11-01T13:34:59.041Z,16.90
2023-11-01T13:37:25.747Z,16.80
2023-11-01T13:39:52.449Z,16.70
2023-11-01T13:42:19.273Z,16.60
2023-11-01T13:44:46.017Z,16.50
2023-11-01T13:47:14.430Z,16.50
2023-11-01T13:49:42.839Z,16.50
2023-11-01T13:52:12.773Z,16.50
2023-11-01T13:54:40.593Z,16.50
2023-11-01T13:57:07.434Z,16.50
2023-11-01T13:59:34.189Z,16.50
2023-11-01T14:02:00.940Z,16.60
2023-11-01T14:04:27.883Z,16.60
2023-11-01T14:06:55.140Z,16.50
2023-11-01T14:09:22.472Z,16.50
2023-11-01T14:11:52.855Z,16.40
2023-11-01T14:14:22.622Z,16.40
2023-11-01T14:16:49.485Z,16.30
2023-11-01T14:19:16.263Z,16.30
2023-11-01T14:21:42.910Z,16.20
2023-11-01T14:24:11.090Z,16.10
2023-11-01T14:26:38.903Z,16.10
2023-11-01T14:29:06.011Z,16.00
2023-11-01T14:31:32.637Z,15.90
2023-11-01T14:33:59.424Z,15.80
2023-11-01T14:36:26.075Z,15.80
2023-11-01T14:38:52.734Z,15.70
2023-11-01T14:41:20.631Z,15.60
2023-11-01T14:43:48.071Z,15.60
2023-11-01T14:46:17.279Z,15.50
2023-11-01T14:48:46.136Z,15.40
2023-11-01T14:51:13.112Z,15.40
2023-11-01T14:53:41.695Z,15.36
2023-11-01T14:56:17.658Z,15.30
2023-11-01T14:58:48.646Z,15.30
2023-11-01T15:01:17.010Z,15.20
2023-11-01T15:03:46.391Z,15.20
2023-11-01T15:06:17.550Z,15.10
2023-11-01T15:08:46.901Z,15.10
2023-11-01T15:11:14.484Z,15.10
2023-11-01T15:13:41.164Z,15.00
2023-11-01T15:16:08.490Z,15.00
2023-11-01T15:18:39.271Z,14.90
2023-11-01T15:21:09.912Z,14.90
2023-11-01T15:23:39.425Z,14.92
2023-11-01T15:26:06.511Z,14.90
2023-11-01T15:28:34.186Z,14.90
2023-11-01T15:31:00.899Z,14.90
2023-11-01T15:33:28.412Z,14.90
2023-11-01T15:35:55.140Z,14.90
2023-11-01T15:38:22.051Z,14.90
2023-11-01T15:40:48.981Z,14.88
2023-11-01T15:43:16.400Z,14.80
2023-11-01T15:45:47.308Z,14.80
2023-11-01T15:48:14.177Z,14.80
2023-11-01T15:50:42.808Z,14.74
2023-11-01T15:53:09.826Z,14.70
2023-11-01T15:55:36.574Z,14.70
2023-11-01T15:58:03.323Z,14.60
2023-11-01T16:00:30.805Z,14.60
2023-11-01T16:02:57.690Z,14.60
2023-11-01T16:05:24.501Z,14.52
2023-11-01T16:07:51.260Z,14.50
2023-11-01T16:10:18.095Z,14.40
2023-11-01T16:12:45.624Z,14.40
2023-11-01T16:15:12.967Z,14.36
2023-11-01T16:17:39.644Z,14.30
2023-11-01T16:20:07.665Z,14.30
2023-11-01T16:22:34.307Z,14.20
2023-11-01T16:25:00.963Z,14.20
2023-11-01T16:27:27.578Z,14.20
2023-11-01T16:29:54.270Z,14.10
2023-11-01T16:32:20.867Z,14.10
2023-11-01T16:34:47.612Z,14.10
2023-11-01T16:37:14.476Z,14.02
2023-11-01T16:39:41.070Z,14.00
2023-11-01T16:42:15.361Z,14.00
2023-11-01T16:44:42.928Z,14.00
2023-11-01T16:47:10.402Z,13.92
2023-11-01T16:49:43.198Z,13.90
2023-11-01T16:52:11.567Z,13.90
2023-11-01T16:54:38.093Z,13.90
2023-11-01T16:57:05.834Z,13.90
2023-11-01T16:59:32.963Z,13.90
2023-11-01T17:02:00.717Z,13.80
2023-11-01T17:04:28.405Z,13.80
2023-11-01T17:06:55.304Z,13.76
2023-11-01T17:09:22.148Z,13.70
2023-11-01T17:11:48.839Z,13.70
2023-11-01T17:14:15.508Z,13.70
2023-11-01T17:16:42.091Z,13.70
2023-11-01T17:19:08.896Z,13.70
2023-11-01T17:21:35.622Z,13.60
2023-11-01T17:24:27.381Z,13.60
2023-11-01T17:26:58.626Z,13.60
2023-11-01T17:29:33.411Z,13.60
2023-11-01T17:32:00.333Z,13.50
2023-11-01T17:34:32.544Z,13.50
2023-11-01T17:37:04.489Z,13.50
2023-11-01T17:39:41.876Z,13.40
2023-11-01T17:42:12.716Z,13.40
2023-11-01T17:44:41.704Z,13.40
2023-11-01T17:47:14.120Z,13.34
2023-11-01T17:49:45.074Z,13.30
2023-11-01T17:52:18.498Z,13.30
2023-11-01T17:54:50.354Z,13.30
2023-11-01T17:57:20.461Z,13.30
2023-11-01T17:59:48.688Z,13.28
2023-11-01T18:03:02.977Z,13.28
2023-11-01T18:05:37.009Z,13.24
2023-11-01T18:08:10.628Z,13.20
2023-11-01T18:10:43.909Z,13.20
2023-11-01T18:13:18.583Z,13.22
2023-11-01T18:15:47.957Z,13.20
2023-11-01T18:18:46.389Z,13.20
2023-11-01T18:21:18.754Z,13.20
2023-11-01T18:23:55.345Z,13.20
2023-11-01T18:26:23.257Z,13.16
2023-11-01T18:28:53.484Z,13.10
2023-11-01T18:31:37.983Z,13.10
2023-11-01T18:34:07.287Z,13.10
2023-11-01T18:36:48.093Z,13.10
2023-11-01T18:39:23.548Z,13.10
2023-11-01T18:41:51.548Z,13.10
2023-11-01T18:44:28.249Z,13.08
2023-11-01T18:46:57.427Z,13.00
2023-11-01T18:49:46.330Z,13.00
2023-11-01T18:52:13.810Z,13.00
2023-11-01T18:54:42.798Z,13.00
2023-11-01T18:57:15.835Z,12.98
2023-11-01T18:59:44.304Z,12.98
2023-11-01T19:02:36.889Z,12.90
2023-11-01T19:05:11.032Z,12.90
2023-11-01T19:07:43.817Z,12.90
2023-11-01T19:10:24.486Z,12.90
2023-11-01T19:12:54.694Z,12.90
2023-11-01T19:15:38.229Z,12.92
2023-11-01T19:18:11.204Z,12.90
2023-11-01T19:20:41.731Z,12.90
2023-11-01T19:23:08.528Z,12.90
2023-11-01T19:25:36.109Z,12.84
2023-11-01T19:28:05.518Z,12.80
2023-11-01T19:30:32.912Z,12.80
2023-11-01T19:33:02.774Z,12.70
2023-11-01T19:35:30.390Z,12.70
2023-11-01T19:37:57.420Z,12.70
2023-11-01T19:40:25.029Z,12.70
2023-11-01T19:42:56.258Z,12.70
2023-11-01T19:45:22.922Z,12.62
2023-11-01T19:47:49.633Z,12.60
2023-11-01T19:50:32.771Z,12.50
2023-11-01T19:52:59.620Z,12.50
2023-11-01T19:55:27.273Z,12.50
2023-11-01T19:57:54.228Z,12.40
2023-11-01T20:00:21.669Z,12.40
2023-11-01T20:02:48.562Z,12.40
2023-11-01T20:05:15.980Z,12.40
2023-11-01T20:07:42.727Z,12.40
2023-11-01T20:10:13.673Z,12.40
2023-11-01T20:12:41.190Z,12.40
2023-11-01T20:15:10.325Z,12.30
2023-11-01T20:17:38.148Z,12.30
2023-11-01T20:20:08.254Z,12.30
2023-11-01T20:22:43.940Z,12.28
2023-11-01T20:25:13.471Z,12.20
2023-11-01T20:27:42.436Z,12.20
2023-11-01T20:30:09.525Z,12.14
2023-11-01T20:32:37.122Z,12.10
2023-11-01T20:35:04.360Z,12.10
2023-11-01T20:37:31.540Z,12.10
2023-11-01T20:39:58.189Z,12.10
2023-11-01T20:42:24.927Z,12.10
2023-11-01T20:44:51.795Z,12.10
2023-11-01T20:47:19.709Z,12.10
2023-11-01T20:49:47.970Z,12.10
2023-11-01T20:52:15.205Z,12.10
2023-11-01T20:54:54.723Z,12.10
2023-11-01T20:57:26.189Z,12.10
2023-11-01T20:59:52.965Z,12.02
2023-11-01T21:02:19.736Z,12.00
2023-11-01T21:04:46.531Z,12.00
2023-11-01T21:07:13.432Z,12.00
2023-11-01T21:09:40.148Z,11.92
2023-11-01T21:12:07.326Z,11.90
2023-11-01T21:14:37.915Z,11.80
2023-11-01T21:17:07.428Z,11.70
2023-11-01T21:19:34.586Z,11.70
2023-11-01T21:22:01.767Z,11.60
2023-11-01T21:24:28.645Z,11.60
2023-11-01T21:26:56.038Z,11.54
2023-11-01T21:29:22.843Z,11.50
2023-11-01T21:31:49.810Z,11.50
2023-11-01T21:34:16.727Z,11.50
2023-11-01T21:36:43.532Z,11.44
2023-11-01T21:39:13.789Z,11.40
2023-11-01T21:41:41.589Z,11.40
2023-11-01T21:44:09.271Z,11.40
2023-11-01T21:46:36.643Z,11.40
2023-11-01T21:49:16.957Z,11.34
2023-11-01T21:51:43.634Z,11.30
2023-11-01T21:54:28.335Z,11.30
2023-11-01T21:56:55.575Z,11.20
2023-11-01T21:59:22.657Z,11.20
2023-11-01T22:01:51.283Z,11.16
2023-11-01T22:04:22.559Z,11.10
2023-11-01T22:06:52.117Z,11.10
2023-11-01T22:09:19.779Z,11.00
2023-11-01T22:11:52.281Z,11.00
2023-11-01T22:14:33.163Z,11.00
2023-11-01T22:17:03.174Z,10.90
2023-11-01T22:19:38.666Z,10.90
2023-11-01T22:22:34.850Z,10.90
2023-11-01T22:25:01.483Z,10.88
2023-11-01T22:27:41.305Z,10.84
2023-11-01T22:30:08.780Z,10.80
2023-11-01T22:32:35.580Z,10.80
2023-11-01T22:35:02.358Z,10.80
2023-11-01T22:37:29.650Z,10.80
2023-11-01T22:39:57.385Z,10.70
2023-11-01T22:42:31.400Z,10.70
2023-11-01T22:45:02.644Z,10.70
2023-11-01T22:47:30.871Z,10.70
2023-11-01T22:49:57.874Z,10.62
2023-11-01T22:52:24.582Z,10.60
2023-11-01T22:54:51.212Z,10.60
2023-11-01T22:57:17.890Z,10.50
2023-11-01T22:59:44.760Z,10.50
2023-11-01T23:02:14.200Z,10.50
2023-11-01T23:04:42.593Z,10.42
2023-11-01T23:07:10.905Z,10.40
2023-11-01T23:09:38.238Z,10.40
2023-11-01T23:12:05.722Z,10.40
2023-11-01T23:14:32.331Z,10.32
2023-11-01T23:16:59.286Z,10.30
2023-11-01T23:19:26.074Z,10.30
2023-11-01T23:21:52.712Z,10.30
2023-11-01T23:24:20.592Z,10.30
2023-11-01T23:26:55.540Z,10.20
2023-11-01T23:29:30.775Z,10.20
2023-11-01T23:31:58.519Z,10.20
2023-11-01T23:34:46.225Z,10.20
2023-11-01T23:37:19.885Z,10.10
2023-11-01T23:39:46.861Z,10.10
2023-11-01T23:42:16.229Z,10.08
2023-11-01T23:44:43.274Z,10.00
2023-11-01T23:47:15.398Z,10.00
2023-11-01T23:49:58.331Z,10.00
2023-11-01T23:52:30.470Z,9.90
2023-11-01T23:54:59.151Z,9.90
2023-11-01T23:57:31.242Z,9.80
2023-11-01T23:59:58.871Z,9.80
